x

Capers Nearshore (cap 2) (41029) Weather Station

8:08am - Sat 19th Aug 2017 All times are EDT. -4 hours from GMT.

  • Wind
    11mph, 16mph gusts
  • Sea Temp 85°f
  • Air Temp 83°f
  • Sea Pressure 1013.9mb
  • Capers Nearshore (cap 2)
  • Capers Nearshore (cap 2)

More Historic Weather Station data

Upgrade to MSW Pro to gain access to the past 30 days of data for over 8000 Wavebouys and Weather Stations around the globe.

Join

Comparision Forecast

View Surf forecast
   
Sat 08/19 8:08am 11 16 mph 1013.9mb 85f 83f
7:08am 16 20 mph 1013.5mb 85f 82f
6:08am 13 20 mph 1013.2mb 85f 82f
5:08am 16 22 mph 1013.1mb 85f 82f
4:08am 16 22 mph 1013.3mb 85f 82f
3:08am 20 25 mph 1013.6mb 85f 83f
2:08am 20 27 mph 1013.8mb 85f 83f
1:08am 20 27 mph 1014.1mb 85f 82f
12:08am 18 25 mph 1013.9mb 85f 83f
Fri 08/18 11:08pm 20 27 mph 1013.7mb 85f 83f
10:08pm 18 22 mph 1013.8mb 85f 83f
9:08pm 18 25 mph 1013.4mb 85f 83f
8:08pm 18 25 mph 1013.3mb 86f 83f
7:08pm 18 22 mph 1013.2mb 86f 84f
6:08pm 18 22 mph 1012.8mb 86f 84f
5:08pm 16 22 mph 1012.6mb 87f 85f
4:08pm 16 20 mph 1012.8mb 87f 84f
3:08pm 13 20 mph 1013.3mb 87f 84f
2:08pm 13 18 mph 1014mb 87f 84f
1:08pm 9 13 mph 1014.6mb 87f 85f
12:08pm 7 11 mph 1015.4mb 86f 86f
11:08am 4 7 mph 1015.7mb 86f 88f
10:08am 7 11 mph 1015.7mb 85f 84f
9:08am 11 16 mph 1015.1mb 85f 84f
8:08am 11 13 mph 1014.7mb 85f 84f
7:08am 13 18 mph 1014.3mb 85f 83f
6:08am 16 20 mph 1013.9mb 85f 83f
5:08am 16 22 mph 1013.5mb 85f 83f
4:08am 16 22 mph 1013.8mb 85f 83f
3:08am 18 22 mph 1014mb 85f 83f
2:08am 16 22 mph 1014.6mb 86f 83f
1:08am 16 22 mph 1015.1mb 86f 83f
12:08am 16 20 mph 1015.3mb 86f 83f
Thu 08/17 11:08pm 16 20 mph 1015.4mb 86f 83f
10:08pm 16 20 mph 1015.3mb 86f 84f
9:08pm 11 18 mph 1015mb 86f 84f
8:08pm 11 16 mph 1014.9mb 86f 84f
7:08pm 7 9 mph 1015.3mb 86f 83f
6:08pm 4 7 mph 1014.8mb 86f 82f
5:08pm 4 9 mph 1014.6mb 86f 81f
4:08pm 16 20 mph 1015.7mb 87f 83f
3:08pm 11 16 mph 1015mb 87f 86f
2:08pm 9 13 mph 1015.9mb 87f 87f
1:08pm 11 16 mph 1016.5mb 87f 86f
12:08pm 9 11 mph 1017.3mb 86f 86f
11:08am 7 11 mph 1017.4mb 86f 86f
10:08am 7 9 mph 1017.3mb 85f 87f
9:08am 7 11 mph 1016.9mb 85f 85f
8:08am 9 11 mph 1016.4mb 85f 85f
7:08am 7 9 mph 1016.1mb 85f 82f
6:08am 11 16 mph 1015.7mb 85f 82f
5:08am 11 16 mph 1015.4mb 85f 83f
4:08am 13 20 mph 1015.3mb 85f 83f
3:08am 16 20 mph 1015.4mb 85f 83f
2:08am 13 18 mph 1015.8mb 85f 83f
1:08am 13 18 mph 1016.5mb 85f 83f
12:08am 11 16 mph 1016.6mb 85f 83f
Wed 08/16 11:08pm 11 16 mph 1016.3mb 85f 83f
10:08pm 11 16 mph 1016.3mb 85f 83f
9:08pm 13 20 mph 1015.9mb 85f 81f
8:08pm 16 22 mph 1015.8mb 85f 81f
7:08pm 16 22 mph 1014.4mb 86f 84f
6:08pm 16 22 mph 1014.5mb 86f 84f
5:08pm 16 22 mph 1014.5mb 86f 84f
4:08pm 16 20 mph 1014.8mb 86f 85f
3:08pm 11 18 mph 1015.3mb 86f 85f
2:08pm 9 13 mph 1015.7mb 87f 86f
1:08pm 7 9 mph 1016mb 86f 86f
12:08pm 4 7 mph 1016.4mb 85f 86f
11:08am 2 4 mph 1016.7mb 85f 86f
10:08am 7 9 mph 1016.4mb 85f 85f
9:08am 11 13 mph 1016.2mb 85f 82f
8:08am 13 18 mph 1015.8mb 85f 81f
7:08am 13 18 mph 1015.1mb 85f 80f
6:08am 13 18 mph 1014.3mb 85f 80f
5:08am 13 18 mph 1013.6mb 85f 82f
4:08am 11 18 mph 1013.3mb 85f 82f
3:08am 11 18 mph 1013mb 85f 83f
2:08am 9 16 mph 1013.2mb 85f 83f
1:08am 11 16 mph 1013.6mb 85f 83f
12:08am 11 16 mph 1013.3mb 85f 83f
Tue 08/15 11:08pm 16 20 mph 1013.6mb 85f 83f
10:08pm 16 20 mph 1013.3mb 85f 83f
9:08pm 16 22 mph 1012.4mb 85f 83f
8:08pm 18 25 mph 1011.8mb 85f 83f
7:08pm 20 27 mph 1011.4mb 86f 83f
6:08pm 18 25 mph 1011.1mb 86f 83f
5:08pm 18 22 mph 1011.1mb 86f 83f
4:08pm 16 22 mph 1011.2mb 85f 83f
3:08pm 13 16 mph 1011.7mb 85f 83f
2:08pm 11 18 mph 1012.4mb 85f 83f